Hudson, South Dakota
Current Conditions -  °F | °C
As of 12:15 PM on Monday 26 Jan 2015 (Local Time) from KORC Reporting Station
Clear Clear  
Wind Chill: 37°   Ceiling: Unl
Heat Index: 45°   Visibility: 10mi
Dew Point: 37°   Wind: 17mph
Humidity: 76%   Direction: 300°WNW
Pressure: 29.89"   Gusts: NA
Location:  43.13°N, 96.45°W
Report Text: KORC 261815Z AUTO 30015KT 10SM CLR 07/03 A2989 RMK AO2
Loading
Personal Weather Stations






























Interactive Weather Map New forecast layout! Learn more

10-Day Weather Forecast

Advertisements
Track Severe Weather on mobile